sensor_id;sensor_type;location;lat;lon;timestamp;temperature;humidity
11784;DHT22;5949;40.386;18.150;2022-10-15T00:01:28;19.70;99.90
11784;DHT22;5949;40.386;18.150;2022-10-15T00:03:56;19.60;99.90
11784;DHT22;5949;40.386;18.150;2022-10-15T00:06:25;19.60;99.90
11784;DHT22;5949;40.386;18.150;2022-10-15T00:08:52;19.70;99.90
11784;DHT22;5949;40.386;18.150;2022-10-15T00:11:22;19.70;99.90
11784;DHT22;5949;40.386;18.150;2022-10-15T00:13:52;19.60;99.90
11784;DHT22;5949;40.386;18.150;2022-10-15T00:16:22;19.60;99.90
11784;DHT22;5949;40.386;18.150;2022-10-15T00:18:50;19.60;99.90
11784;DHT22;5949;40.386;18.150;2022-10-15T00:21:19;19.60;99.90
11784;DHT22;5949;40.386;18.150;2022-10-15T00:23:48;19.60;99.90
11784;DHT22;5949;40.386;18.150;2022-10-15T00:26:18;19.60;99.90
11784;DHT22;5949;40.386;18.150;2022-10-15T00:28:47;19.50;99.90
11784;DHT22;5949;40.386;18.150;2022-10-15T00:31:17;19.40;99.90
11784;DHT22;5949;40.386;18.150;2022-10-15T00:33:46;19.40;99.90
11784;DHT22;5949;40.386;18.150;2022-10-15T00:36:17;19.40;99.90
11784;DHT22;5949;40.386;18.150;2022-10-15T00:38:45;19.30;99.90
11784;DHT22;5949;40.386;18.150;2022-10-15T00:41:18;19.30;99.90
11784;DHT22;5949;40.386;18.150;2022-10-15T00:43:48;19.30;99.90
11784;DHT22;5949;40.386;18.150;2022-10-15T00:46:19;19.20;99.90
11784;DHT22;5949;40.386;18.150;2022-10-15T00:48:50;19.20;99.90
11784;DHT22;5949;40.386;18.150;2022-10-15T00:51:20;19.20;99.90
11784;DHT22;5949;40.386;18.150;2022-10-15T00:53:49;19.20;99.90
11784;DHT22;5949;40.386;18.150;2022-10-15T00:56:20;19.10;99.90
11784;DHT22;5949;40.386;18.150;2022-10-15T00:58:49;19.00;99.90
11784;DHT22;5949;40.386;18.150;2022-10-15T01:01:18;19.00;99.90
11784;DHT22;5949;40.386;18.150;2022-10-15T01:03:46;19.00;99.90
11784;DHT22;5949;40.386;18.150;2022-10-15T01:06:15;19.00;99.90
11784;DHT22;5949;40.386;18.150;2022-10-15T01:08:42;18.90;99.90
11784;DHT22;5949;40.386;18.150;2022-10-15T01:11:23;18.90;99.90
11784;DHT22;5949;40.386;18.150;2022-10-15T01:13:59;18.90;99.90
11784;DHT22;5949;40.386;18.150;2022-10-15T01:16:34;18.90;99.90
11784;DHT22;5949;40.386;18.150;2022-10-15T01:19:06;18.90;99.90
11784;DHT22;5949;40.386;18.150;2022-10-15T01:21:40;18.80;99.90
11784;DHT22;5949;40.386;18.150;2022-10-15T01:24:43;18.80;99.90
11784;DHT22;5949;40.386;18.150;2022-10-15T01:30:29;18.80;99.90
11784;DHT22;5949;40.386;18.150;2022-10-15T01:33:21;18.80;99.90
11784;DHT22;5949;40.386;18.150;2022-10-15T01:35:52;18.60;99.90
11784;DHT22;5949;40.386;18.150;2022-10-15T01:41:27;18.60;99.90
11784;DHT22;5949;40.386;18.150;2022-10-15T01:44:00;18.70;99.90
11784;DHT22;5949;40.386;18.150;2022-10-15T01:46:35;18.60;99.90
11784;DHT22;5949;40.386;18.150;2022-10-15T01:49:06;18.60;99.90
11784;DHT22;5949;40.386;18.150;2022-10-15T01:51:36;18.60;99.90
11784;DHT22;5949;40.386;18.150;2022-10-15T01:54:07;18.60;99.90
11784;DHT22;5949;40.386;18.150;2022-10-15T01:56:36;18.60;99.90
11784;DHT22;5949;40.386;18.150;2022-10-15T01:59:05;18.50;99.90
11784;DHT22;5949;40.386;18.150;2022-10-15T02:01:35;18.50;99.90
11784;DHT22;5949;40.386;18.150;2022-10-15T02:04:17;18.40;99.90
11784;DHT22;5949;40.386;18.150;2022-10-15T02:06:47;18.40;99.90
11784;DHT22;5949;40.386;18.150;2022-10-15T02:09:21;18.40;99.90
11784;DHT22;5949;40.386;18.150;2022-10-15T02:11:56;18.40;99.90
11784;DHT22;5949;40.386;18.150;2022-10-15T02:14:31;18.40;99.90
11784;DHT22;5949;40.386;18.150;2022-10-15T02:17:05;18.40;99.90
11784;DHT22;5949;40.386;18.150;2022-10-15T02:19:40;18.40;99.90
11784;DHT22;5949;40.386;18.150;2022-10-15T02:22:13;18.40;99.90
11784;DHT22;5949;40.386;18.150;2022-10-15T02:24:45;18.40;99.90
11784;DHT22;5949;40.386;18.150;2022-10-15T02:27:15;18.40;99.90
11784;DHT22;5949;40.386;18.150;2022-10-15T02:29:44;18.50;99.90
11784;DHT22;5949;40.386;18.150;2022-10-15T02:32:16;18.50;99.90
11784;DHT22;5949;40.386;18.150;2022-10-15T02:34:45;18.50;99.90
11784;DHT22;5949;40.386;18.150;2022-10-15T02:37:13;18.50;99.90
11784;DHT22;5949;40.386;18.150;2022-10-15T02:39:41;18.50;99.90
11784;DHT22;5949;40.386;18.150;2022-10-15T02:42:10;18.50;99.90
11784;DHT22;5949;40.386;18.150;2022-10-15T02:44:37;18.40;99.90
11784;DHT22;5949;40.386;18.150;2022-10-15T02:47:05;18.40;99.90
11784;DHT22;5949;40.386;18.150;2022-10-15T02:49:34;18.40;99.90
11784;DHT22;5949;40.386;18.150;2022-10-15T02:52:01;18.20;99.90
11784;DHT22;5949;40.386;18.150;2022-10-15T02:54:29;18.20;99.90
11784;DHT22;5949;40.386;18.150;2022-10-15T02:56:56;18.20;99.90
11784;DHT22;5949;40.386;18.150;2022-10-15T02:59:24;18.20;99.90
11784;DHT22;5949;40.386;18.150;2022-10-15T03:01:52;18.20;99.90
11784;DHT22;5949;40.386;18.150;2022-10-15T03:04:19;18.20;99.90
11784;DHT22;5949;40.386;18.150;2022-10-15T03:06:48;18.10;99.90
11784;DHT22;5949;40.386;18.150;2022-10-15T03:09:16;18.10;99.90
11784;DHT22;5949;40.386;18.150;2022-10-15T03:11:44;18.10;99.90
11784;DHT22;5949;40.386;18.150;2022-10-15T03:14:11;18.00;99.90
11784;DHT22;5949;40.386;18.150;2022-10-15T03:16:39;18.00;99.90
11784;DHT22;5949;40.386;18.150;2022-10-15T03:19:06;18.00;99.90
11784;DHT22;5949;40.386;18.150;2022-10-15T03:21:33;17.90;99.90
11784;DHT22;5949;40.386;18.150;2022-10-15T03:24:03;17.90;99.90
11784;DHT22;5949;40.386;18.150;2022-10-15T03:26:30;17.90;99.90
11784;DHT22;5949;40.386;18.150;2022-10-15T03:28:58;17.90;99.90
11784;DHT22;5949;40.386;18.150;2022-10-15T03:31:25;18.00;99.90
11784;DHT22;5949;40.386;18.150;2022-10-15T03:33:53;17.90;99.90
11784;DHT22;5949;40.386;18.150;2022-10-15T03:36:20;17.90;99.90
11784;DHT22;5949;40.386;18.150;2022-10-15T03:38:48;17.90;99.90
11784;DHT22;5949;40.386;18.150;2022-10-15T03:41:17;17.90;99.90
11784;DHT22;5949;40.386;18.150;2022-10-15T03:43:44;18.00;99.90
11784;DHT22;5949;40.386;18.150;2022-10-15T03:46:11;18.00;99.90
11784;DHT22;5949;40.386;18.150;2022-10-15T03:48:40;18.00;99.90
11784;DHT22;5949;40.386;18.150;2022-10-15T03:51:08;17.90;99.90
11784;DHT22;5949;40.386;18.150;2022-10-15T03:53:35;17.90;99.90
11784;DHT22;5949;40.386;18.150;2022-10-15T03:56:03;17.90;99.90
11784;DHT22;5949;40.386;18.150;2022-10-15T03:58:32;17.90;99.90
11784;DHT22;5949;40.386;18.150;2022-10-15T04:01:00;17.90;99.90
11784;DHT22;5949;40.386;18.150;2022-10-15T04:03:27;18.00;99.90
11784;DHT22;5949;40.386;18.150;2022-10-15T04:05:55;17.90;99.90
11784;DHT22;5949;40.386;18.150;2022-10-15T04:08:22;17.90;99.90
11784;DHT22;5949;40.386;18.150;2022-10-15T04:10:50;17.90;99.90
11784;DHT22;5949;40.386;18.150;2022-10-15T04:13:18;17.90;99.90
11784;DHT22;5949;40.386;18.150;2022-10-15T04:15:47;17.90;99.90
11784;DHT22;5949;40.386;18.150;2022-10-15T04:18:14;18.00;99.90
11784;DHT22;5949;40.386;18.150;2022-10-15T04:20:42;18.10;99.90
11784;DHT22;5949;40.386;18.150;2022-10-15T04:23:10;18.10;99.90
11784;DHT22;5949;40.386;18.150;2022-10-15T04:25:38;18.00;99.90
11784;DHT22;5949;40.386;18.150;2022-10-15T04:28:05;18.00;99.90
11784;DHT22;5949;40.386;18.150;2022-10-15T04:30:33;18.00;99.90
11784;DHT22;5949;40.386;18.150;2022-10-15T04:33:02;18.10;99.90
11784;DHT22;5949;40.386;18.150;2022-10-15T04:35:29;18.00;99.90
11784;DHT22;5949;40.386;18.150;2022-10-15T04:37:57;17.90;99.90
11784;DHT22;5949;40.386;18.150;2022-10-15T04:40:24;18.00;99.90
11784;DHT22;5949;40.386;18.150;2022-10-15T04:42:52;18.00;99.90
11784;DHT22;5949;40.386;18.150;2022-10-15T04:45:19;18.10;99.90
11784;DHT22;5949;40.386;18.150;2022-10-15T04:47:47;18.10;99.90
11784;DHT22;5949;40.386;18.150;2022-10-15T04:50:16;18.10;99.90
11784;DHT22;5949;40.386;18.150;2022-10-15T04:52:44;18.10;99.90
11784;DHT22;5949;40.386;18.150;2022-10-15T04:55:11;18.10;99.90
11784;DHT22;5949;40.386;18.150;2022-10-15T04:57:39;18.10;99.90
11784;DHT22;5949;40.386;18.150;2022-10-15T05:00:07;18.20;99.90
11784;DHT22;5949;40.386;18.150;2022-10-15T05:02:35;18.10;99.90
11784;DHT22;5949;40.386;18.150;2022-10-15T05:05:02;18.10;99.90
11784;DHT22;5949;40.386;18.150;2022-10-15T05:07:31;18.10;99.90
11784;DHT22;5949;40.386;18.150;2022-10-15T05:09:59;18.10;99.90
11784;DHT22;5949;40.386;18.150;2022-10-15T05:12:26;18.10;99.90
11784;DHT22;5949;40.386;18.150;2022-10-15T05:14:53;18.20;99.90
11784;DHT22;5949;40.386;18.150;2022-10-15T05:17:21;18.10;99.90
11784;DHT22;5949;40.386;18.150;2022-10-15T05:19:48;18.20;99.90
11784;DHT22;5949;40.386;18.150;2022-10-15T05:22:16;18.30;99.90
11784;DHT22;5949;40.386;18.150;2022-10-15T05:24:44;18.50;99.90
11784;DHT22;5949;40.386;18.150;2022-10-15T05:27:12;18.80;99.90
11784;DHT22;5949;40.386;18.150;2022-10-15T05:29:39;18.80;99.90
11784;DHT22;5949;40.386;18.150;2022-10-15T05:32:06;19.20;99.90
11784;DHT22;5949;40.386;18.150;2022-10-15T05:34:34;19.30;99.90
11784;DHT22;5949;40.386;18.150;2022-10-15T05:37:01;19.30;99.90
11784;DHT22;5949;40.386;18.150;2022-10-15T05:39:29;19.30;99.90
11784;DHT22;5949;40.386;18.150;2022-10-15T05:41:57;19.40;99.90
11784;DHT22;5949;40.386;18.150;2022-10-15T05:44:25;19.60;99.90
11784;DHT22;5949;40.386;18.150;2022-10-15T05:46:52;20.00;99.90
11784;DHT22;5949;40.386;18.150;2022-10-15T05:49:20;20.20;99.90
11784;DHT22;5949;40.386;18.150;2022-10-15T05:51:47;20.80;99.90
11784;DHT22;5949;40.386;18.150;2022-10-15T05:54:14;21.00;99.90
11784;DHT22;5949;40.386;18.150;2022-10-15T05:56:42;21.30;99.90
11784;DHT22;5949;40.386;18.150;2022-10-15T05:59:11;21.30;99.90
11784;DHT22;5949;40.386;18.150;2022-10-15T06:01:38;21.60;99.90
11784;DHT22;5949;40.386;18.150;2022-10-15T06:04:05;22.00;99.90
11784;DHT22;5949;40.386;18.150;2022-10-15T06:06:33;22.00;99.90
11784;DHT22;5949;40.386;18.150;2022-10-15T06:09:00;22.00;99.90
11784;DHT22;5949;40.386;18.150;2022-10-15T06:11:28;21.90;99.90
11784;DHT22;5949;40.386;18.150;2022-10-15T06:13:55;21.80;99.90
11784;DHT22;5949;40.386;18.150;2022-10-15T06:16:24;21.90;99.90
11784;DHT22;5949;40.386;18.150;2022-10-15T06:18:52;22.00;99.90
11784;DHT22;5949;40.386;18.150;2022-10-15T06:21:19;21.90;99.90
11784;DHT22;5949;40.386;18.150;2022-10-15T06:23:47;21.70;99.90
11784;DHT22;5949;40.386;18.150;2022-10-15T06:26:14;22.00;99.90
11784;DHT22;5949;40.386;18.150;2022-10-15T06:28:41;21.90;99.90
11784;DHT22;5949;40.386;18.150;2022-10-15T06:31:09;22.00;99.90
11784;DHT22;5949;40.386;18.150;2022-10-15T06:33:38;22.00;99.90
11784;DHT22;5949;40.386;18.150;2022-10-15T06:36:07;22.10;99.90
11784;DHT22;5949;40.386;18.150;2022-10-15T06:38:36;22.00;99.90
11784;DHT22;5949;40.386;18.150;2022-10-15T06:41:05;22.20;99.90
11784;DHT22;5949;40.386;18.150;2022-10-15T06:43:33;22.10;99.90
11784;DHT22;5949;40.386;18.150;2022-10-15T06:46:00;22.00;99.90
11784;DHT22;5949;40.386;18.150;2022-10-15T06:48:28;22.00;99.90
11784;DHT22;5949;40.386;18.150;2022-10-15T06:51:03;22.00;99.90
11784;DHT22;5949;40.386;18.150;2022-10-15T06:53:31;21.70;99.90
11784;DHT22;5949;40.386;18.150;2022-10-15T06:56:00;21.90;99.90
11784;DHT22;5949;40.386;18.150;2022-10-15T06:58:27;22.20;99.90
11784;DHT22;5949;40.386;18.150;2022-10-15T07:00:59;22.00;99.90
11784;DHT22;5949;40.386;18.150;2022-10-15T07:03:27;21.90;99.90
11784;DHT22;5949;40.386;18.150;2022-10-15T07:05:55;21.80;99.90
11784;DHT22;5949;40.386;18.150;2022-10-15T07:08:25;22.00;99.90
11784;DHT22;5949;40.386;18.150;2022-10-15T07:10:53;21.90;99.90
11784;DHT22;5949;40.386;18.150;2022-10-15T07:13:20;21.90;99.90
11784;DHT22;5949;40.386;18.150;2022-10-15T07:15:47;21.80;99.90
11784;DHT22;5949;40.386;18.150;2022-10-15T07:18:25;21.90;99.90
11784;DHT22;5949;40.386;18.150;2022-10-15T07:20:53;21.90;99.90
11784;DHT22;5949;40.386;18.150;2022-10-15T07:23:20;21.80;99.90
11784;DHT22;5949;40.386;18.150;2022-10-15T07:25:49;21.50;99.90
11784;DHT22;5949;40.386;18.150;2022-10-15T07:28:17;21.60;99.90
11784;DHT22;5949;40.386;18.150;2022-10-15T07:30:44;21.50;99.90
11784;DHT22;5949;40.386;18.150;2022-10-15T07:33:11;21.30;99.90
11784;DHT22;5949;40.386;18.150;2022-10-15T07:35:39;21.30;99.90
11784;DHT22;5949;40.386;18.150;2022-10-15T07:38:06;21.10;99.90
11784;DHT22;5949;40.386;18.150;2022-10-15T07:40:34;21.10;99.90
11784;DHT22;5949;40.386;18.150;2022-10-15T07:43:02;21.20;99.90
11784;DHT22;5949;40.386;18.150;2022-10-15T07:45:30;21.10;99.90
11784;DHT22;5949;40.386;18.150;2022-10-15T07:47:57;21.10;99.90
11784;DHT22;5949;40.386;18.150;2022-10-15T07:50:25;21.30;99.90
11784;DHT22;5949;40.386;18.150;2022-10-15T07:52:52;21.50;99.90
11784;DHT22;5949;40.386;18.150;2022-10-15T07:55:19;21.40;99.90
11784;DHT22;5949;40.386;18.150;2022-10-15T07:57:47;21.30;99.90
11784;DHT22;5949;40.386;18.150;2022-10-15T08:00:16;21.50;99.90
11784;DHT22;5949;40.386;18.150;2022-10-15T08:02:43;21.50;99.90
11784;DHT22;5949;40.386;18.150;2022-10-15T08:05:11;21.40;99.90
11784;DHT22;5949;40.386;18.150;2022-10-15T08:07:39;21.30;99.90
11784;DHT22;5949;40.386;18.150;2022-10-15T08:10:07;21.50;99.90
11784;DHT22;5949;40.386;18.150;2022-10-15T08:12:34;21.50;99.90
11784;DHT22;5949;40.386;18.150;2022-10-15T08:15:02;21.50;99.90
11784;DHT22;5949;40.386;18.150;2022-10-15T08:17:30;21.70;99.90
11784;DHT22;5949;40.386;18.150;2022-10-15T08:19:58;21.60;99.90
11784;DHT22;5949;40.386;18.150;2022-10-15T08:22:25;21.80;99.90
11784;DHT22;5949;40.386;18.150;2022-10-15T08:24:52;21.80;99.90
11784;DHT22;5949;40.386;18.150;2022-10-15T08:27:20;21.60;99.90
11784;DHT22;5949;40.386;18.150;2022-10-15T08:29:47;21.60;99.90
11784;DHT22;5949;40.386;18.150;2022-10-15T08:32:15;21.70;99.90
11784;DHT22;5949;40.386;18.150;2022-10-15T08:34:43;21.70;99.90
11784;DHT22;5949;40.386;18.150;2022-10-15T08:37:11;21.50;99.90
11784;DHT22;5949;40.386;18.150;2022-10-15T08:39:38;21.60;99.90
11784;DHT22;5949;40.386;18.150;2022-10-15T08:42:13;21.60;99.90
11784;DHT22;5949;40.386;18.150;2022-10-15T08:44:45;21.40;99.90
11784;DHT22;5949;40.386;18.150;2022-10-15T08:47:26;21.50;99.90
11784;DHT22;5949;40.386;18.150;2022-10-15T08:49:57;21.60;99.90
11784;DHT22;5949;40.386;18.150;2022-10-15T08:52:33;21.80;99.90
11784;DHT22;5949;40.386;18.150;2022-10-15T08:55:07;21.60;99.90
11784;DHT22;5949;40.386;18.150;2022-10-15T08:57:38;21.60;99.90
11784;DHT22;5949;40.386;18.150;2022-10-15T09:00:13;21.30;99.90
11784;DHT22;5949;40.386;18.150;2022-10-15T09:02:49;21.30;99.90
11784;DHT22;5949;40.386;18.150;2022-10-15T09:05:28;21.40;99.90
11784;DHT22;5949;40.386;18.150;2022-10-15T09:08:02;21.40;99.90
11784;DHT22;5949;40.386;18.150;2022-10-15T09:10:37;21.50;99.90
11784;DHT22;5949;40.386;18.150;2022-10-15T09:13:11;21.40;99.90
11784;DHT22;5949;40.386;18.150;2022-10-15T09:15:47;21.60;99.90
11784;DHT22;5949;40.386;18.150;2022-10-15T09:18:20;21.80;99.90
11784;DHT22;5949;40.386;18.150;2022-10-15T09:20:50;21.60;99.90
11784;DHT22;5949;40.386;18.150;2022-10-15T09:23:21;21.60;99.90
11784;DHT22;5949;40.386;18.150;2022-10-15T09:25:54;21.30;99.90
11784;DHT22;5949;40.386;18.150;2022-10-15T09:28:26;21.50;99.90
11784;DHT22;5949;40.386;18.150;2022-10-15T09:30:56;21.50;99.90
11784;DHT22;5949;40.386;18.150;2022-10-15T09:33:34;21.50;99.90
11784;DHT22;5949;40.386;18.150;2022-10-15T09:36:16;21.40;99.90
11784;DHT22;5949;40.386;18.150;2022-10-15T09:38:54;21.60;99.90
11784;DHT22;5949;40.386;18.150;2022-10-15T09:41:31;21.40;99.90
11784;DHT22;5949;40.386;18.150;2022-10-15T09:44:00;21.40;99.90
11784;DHT22;5949;40.386;18.150;2022-10-15T09:46:28;21.50;99.90
11784;DHT22;5949;40.386;18.150;2022-10-15T09:49:02;21.40;99.90
11784;DHT22;5949;40.386;18.150;2022-10-15T09:51:37;21.20;99.90
11784;DHT22;5949;40.386;18.150;2022-10-15T09:54:12;21.40;99.90
11784;DHT22;5949;40.386;18.150;2022-10-15T09:56:45;21.40;99.90
11784;DHT22;5949;40.386;18.150;2022-10-15T09:59:16;21.30;99.90
11784;DHT22;5949;40.386;18.150;2022-10-15T10:01:56;21.30;99.90
11784;DHT22;5949;40.386;18.150;2022-10-15T10:04:26;21.40;99.90
11784;DHT22;5949;40.386;18.150;2022-10-15T10:06:57;21.50;99.90
11784;DHT22;5949;40.386;18.150;2022-10-15T10:09:28;21.70;99.90
11784;DHT22;5949;40.386;18.150;2022-10-15T10:11:59;21.50;99.90
11784;DHT22;5949;40.386;18.150;2022-10-15T10:14:29;21.40;99.90
11784;DHT22;5949;40.386;18.150;2022-10-15T10:17:14;21.30;99.90
11784;DHT22;5949;40.386;18.150;2022-10-15T10:19:42;21.40;99.90
11784;DHT22;5949;40.386;18.150;2022-10-15T10:22:15;21.30;99.90
11784;DHT22;5949;40.386;18.150;2022-10-15T10:24:44;21.40;99.90
11784;DHT22;5949;40.386;18.150;2022-10-15T10:27:19;21.50;99.90
11784;DHT22;5949;40.386;18.150;2022-10-15T10:29:54;21.40;99.90
11784;DHT22;5949;40.386;18.150;2022-10-15T10:32:25;21.40;99.90
11784;DHT22;5949;40.386;18.150;2022-10-15T10:34:54;21.40;99.90
11784;DHT22;5949;40.386;18.150;2022-10-15T10:37:23;21.40;99.90
11784;DHT22;5949;40.386;18.150;2022-10-15T10:39:53;21.60;99.90
11784;DHT22;5949;40.386;18.150;2022-10-15T10:42:38;21.60;99.90
11784;DHT22;5949;40.386;18.150;2022-10-15T10:45:19;21.40;99.90
11784;DHT22;5949;40.386;18.150;2022-10-15T10:47:48;21.30;99.90
11784;DHT22;5949;40.386;18.150;2022-10-15T10:50:27;21.40;99.90
11784;DHT22;5949;40.386;18.150;2022-10-15T10:52:57;21.30;99.90
11784;DHT22;5949;40.386;18.150;2022-10-15T10:55:38;21.30;99.90
11784;DHT22;5949;40.386;18.150;2022-10-15T10:58:09;21.50;99.90
11784;DHT22;5949;40.386;18.150;2022-10-15T11:00:47;21.50;99.90
11784;DHT22;5949;40.386;18.150;2022-10-15T11:03:22;21.40;99.90
11784;DHT22;5949;40.386;18.150;2022-10-15T11:05:58;21.40;99.90
11784;DHT22;5949;40.386;18.150;2022-10-15T11:08:32;21.30;99.90
11784;DHT22;5949;40.386;18.150;2022-10-15T11:11:09;21.30;99.90
11784;DHT22;5949;40.386;18.150;2022-10-15T11:13:47;21.40;99.90
11784;DHT22;5949;40.386;18.150;2022-10-15T11:16:22;21.30;99.90
11784;DHT22;5949;40.386;18.150;2022-10-15T11:19:03;21.30;99.90
11784;DHT22;5949;40.386;18.150;2022-10-15T11:21:44;21.30;99.90
11784;DHT22;5949;40.386;18.150;2022-10-15T11:24:25;21.20;99.90
11784;DHT22;5949;40.386;18.150;2022-10-15T11:27:08;21.20;99.90
11784;DHT22;5949;40.386;18.150;2022-10-15T11:29:41;21.40;99.90
11784;DHT22;5949;40.386;18.150;2022-10-15T11:32:19;21.40;99.90
11784;DHT22;5949;40.386;18.150;2022-10-15T11:35:10;21.40;99.90
11784;DHT22;5949;40.386;18.150;2022-10-15T11:37:45;21.40;99.90
11784;DHT22;5949;40.386;18.150;2022-10-15T11:40:23;21.50;99.90
11784;DHT22;5949;40.386;18.150;2022-10-15T11:43:01;21.40;99.90
11784;DHT22;5949;40.386;18.150;2022-10-15T11:45:54;21.40;99.90
11784;DHT22;5949;40.386;18.150;2022-10-15T11:48:33;21.40;99.90
11784;DHT22;5949;40.386;18.150;2022-10-15T11:51:12;21.40;99.90
11784;DHT22;5949;40.386;18.150;2022-10-15T11:54:09;21.40;99.90
11784;DHT22;5949;40.386;18.150;2022-10-15T11:56:42;21.40;99.90
11784;DHT22;5949;40.386;18.150;2022-10-15T11:59:18;21.40;99.90
11784;DHT22;5949;40.386;18.150;2022-10-15T12:01:52;21.50;99.90
11784;DHT22;5949;40.386;18.150;2022-10-15T12:04:28;21.50;99.90
11784;DHT22;5949;40.386;18.150;2022-10-15T12:06:58;21.40;99.90
11784;DHT22;5949;40.386;18.150;2022-10-15T12:09:30;21.40;99.90
11784;DHT22;5949;40.386;18.150;2022-10-15T12:12:04;21.30;99.90
11784;DHT22;5949;40.386;18.150;2022-10-15T12:14:40;21.30;99.90
11784;DHT22;5949;40.386;18.150;2022-10-15T12:17:15;21.40;99.90
11784;DHT22;5949;40.386;18.150;2022-10-15T12:19:47;21.40;99.90
11784;DHT22;5949;40.386;18.150;2022-10-15T12:22:32;21.30;99.90
11784;DHT22;5949;40.386;18.150;2022-10-15T12:25:00;21.60;99.90
11784;DHT22;5949;40.386;18.150;2022-10-15T12:27:33;21.50;99.90
11784;DHT22;5949;40.386;18.150;2022-10-15T12:30:12;21.40;99.90
11784;DHT22;5949;40.386;18.150;2022-10-15T12:32:46;21.40;99.90
11784;DHT22;5949;40.386;18.150;2022-10-15T12:38:19;21.60;99.90
11784;DHT22;5949;40.386;18.150;2022-10-15T12:40:56;21.70;99.90
11784;DHT22;5949;40.386;18.150;2022-10-15T12:43:26;21.70;99.90
11784;DHT22;5949;40.386;18.150;2022-10-15T12:45:56;21.60;99.90
11784;DHT22;5949;40.386;18.150;2022-10-15T12:48:40;21.70;99.90
11784;DHT22;5949;40.386;18.150;2022-10-15T12:51:38;21.60;99.90
11784;DHT22;5949;40.386;18.150;2022-10-15T12:54:33;21.50;99.90
11784;DHT22;5949;40.386;18.150;2022-10-15T12:57:02;21.50;99.90
11784;DHT22;5949;40.386;18.150;2022-10-15T12:59:53;21.40;99.90
11784;DHT22;5949;40.386;18.150;2022-10-15T13:02:35;21.30;99.90
11784;DHT22;5949;40.386;18.150;2022-10-15T13:05:05;21.50;99.90
11784;DHT22;5949;40.386;18.150;2022-10-15T13:07:36;21.40;99.90
11784;DHT22;5949;40.386;18.150;2022-10-15T13:10:17;21.40;99.90
11784;DHT22;5949;40.386;18.150;2022-10-15T13:12:50;21.30;99.90
11784;DHT22;5949;40.386;18.150;2022-10-15T13:15:22;21.30;99.90
11784;DHT22;5949;40.386;18.150;2022-10-15T13:17:50;21.30;99.90
11784;DHT22;5949;40.386;18.150;2022-10-15T13:20:32;21.30;99.90
11784;DHT22;5949;40.386;18.150;2022-10-15T13:23:07;21.20;99.90
11784;DHT22;5949;40.386;18.150;2022-10-15T13:25:35;21.20;99.90
11784;DHT22;5949;40.386;18.150;2022-10-15T13:28:30;21.20;99.90
11784;DHT22;5949;40.386;18.150;2022-10-15T13:31:01;21.20;99.90
11784;DHT22;5949;40.386;18.150;2022-10-15T13:33:30;21.20;99.90
11784;DHT22;5949;40.386;18.150;2022-10-15T13:36:04;21.20;99.90
11784;DHT22;5949;40.386;18.150;2022-10-15T13:38:33;21.10;99.90
11784;DHT22;5949;40.386;18.150;2022-10-15T13:41:02;21.20;99.90
11784;DHT22;5949;40.386;18.150;2022-10-15T13:43:30;21.10;99.90
11784;DHT22;5949;40.386;18.150;2022-10-15T13:46:00;21.10;99.90
11784;DHT22;5949;40.386;18.150;2022-10-15T13:48:29;21.10;99.90
11784;DHT22;5949;40.386;18.150;2022-10-15T13:50:59;21.00;99.90
11784;DHT22;5949;40.386;18.150;2022-10-15T13:53:28;21.00;99.90
11784;DHT22;5949;40.386;18.150;2022-10-15T13:55:59;21.00;99.90
11784;DHT22;5949;40.386;18.150;2022-10-15T13:58:27;20.90;99.90
11784;DHT22;5949;40.386;18.150;2022-10-15T14:00:59;20.90;99.90
11784;DHT22;5949;40.386;18.150;2022-10-15T14:03:29;20.90;99.90
11784;DHT22;5949;40.386;18.150;2022-10-15T14:06:06;20.80;99.90
11784;DHT22;5949;40.386;18.150;2022-10-15T14:08:35;20.80;99.90
11784;DHT22;5949;40.386;18.150;2022-10-15T14:11:03;20.80;99.90
11784;DHT22;5949;40.386;18.150;2022-10-15T14:13:31;20.70;99.90
11784;DHT22;5949;40.386;18.150;2022-10-15T14:16:12;20.70;99.90
11784;DHT22;5949;40.386;18.150;2022-10-15T14:18:42;20.80;99.90
11784;DHT22;5949;40.386;18.150;2022-10-15T14:21:12;20.60;99.90
11784;DHT22;5949;40.386;18.150;2022-10-15T14:23:41;20.60;99.90
11784;DHT22;5949;40.386;18.150;2022-10-15T14:26:10;20.60;99.90
11784;DHT22;5949;40.386;18.150;2022-10-15T14:28:39;20.60;99.90
11784;DHT22;5949;40.386;18.150;2022-10-15T14:31:08;20.60;99.90
11784;DHT22;5949;40.386;18.150;2022-10-15T14:33:51;20.70;99.90
11784;DHT22;5949;40.386;18.150;2022-10-15T14:36:24;20.70;99.90
11784;DHT22;5949;40.386;18.150;2022-10-15T14:38:53;20.60;99.90
11784;DHT22;5949;40.386;18.150;2022-10-15T14:41:24;20.60;99.90
11784;DHT22;5949;40.386;18.150;2022-10-15T14:44:16;20.50;99.90
11784;DHT22;5949;40.386;18.150;2022-10-15T14:46:47;20.40;99.90
11784;DHT22;5949;40.386;18.150;2022-10-15T14:49:19;20.50;99.90
11784;DHT22;5949;40.386;18.150;2022-10-15T14:51:53;20.40;99.90
11784;DHT22;5949;40.386;18.150;2022-10-15T14:54:24;20.40;99.90
11784;DHT22;5949;40.386;18.150;2022-10-15T14:56:54;20.40;99.90
11784;DHT22;5949;40.386;18.150;2022-10-15T14:59:27;20.40;99.90
11784;DHT22;5949;40.386;18.150;2022-10-15T15:01:59;20.30;99.90
11784;DHT22;5949;40.386;18.150;2022-10-15T15:04:36;20.30;99.90
11784;DHT22;5949;40.386;18.150;2022-10-15T15:07:13;20.20;99.90
11784;DHT22;5949;40.386;18.150;2022-10-15T15:09:41;20.20;99.90
11784;DHT22;5949;40.386;18.150;2022-10-15T15:12:21;20.20;99.90
11784;DHT22;5949;40.386;18.150;2022-10-15T15:14:49;20.10;99.90
11784;DHT22;5949;40.386;18.150;2022-10-15T15:17:20;20.10;99.90
11784;DHT22;5949;40.386;18.150;2022-10-15T15:19:48;20.10;99.90
11784;DHT22;5949;40.386;18.150;2022-10-15T15:22:20;20.00;99.90
11784;DHT22;5949;40.386;18.150;2022-10-15T15:24:49;20.00;99.90
11784;DHT22;5949;40.386;18.150;2022-10-15T15:27:22;20.00;99.90
11784;DHT22;5949;40.386;18.150;2022-10-15T15:29:50;20.00;99.90
11784;DHT22;5949;40.386;18.150;2022-10-15T15:32:20;20.00;99.90
11784;DHT22;5949;40.386;18.150;2022-10-15T15:34:49;20.00;99.90
11784;DHT22;5949;40.386;18.150;2022-10-15T15:37:19;19.90;99.90
11784;DHT22;5949;40.386;18.150;2022-10-15T15:39:47;19.90;99.90
11784;DHT22;5949;40.386;18.150;2022-10-15T15:42:15;19.90;99.90
11784;DHT22;5949;40.386;18.150;2022-10-15T15:44:43;19.90;99.90
11784;DHT22;5949;40.386;18.150;2022-10-15T15:47:11;19.90;99.90
11784;DHT22;5949;40.386;18.150;2022-10-15T15:49:40;19.90;99.90
11784;DHT22;5949;40.386;18.150;2022-10-15T15:52:10;19.80;99.90
11784;DHT22;5949;40.386;18.150;2022-10-15T15:54:39;19.70;99.90
11784;DHT22;5949;40.386;18.150;2022-10-15T15:57:06;19.80;99.90
11784;DHT22;5949;40.386;18.150;2022-10-15T15:59:34;19.70;99.90
11784;DHT22;5949;40.386;18.150;2022-10-15T16:02:02;19.70;99.90
11784;DHT22;5949;40.386;18.150;2022-10-15T16:04:29;19.60;99.90